createdAt,value
2023-03-26T00:02:04.582Z,95918.53
2023-03-26T00:04:33.811Z,95911.53
2023-03-26T00:07:01.806Z,95892.94
2023-03-26T00:09:30.485Z,95918.53
2023-03-26T00:11:59.606Z,95907.44
2023-03-26T00:14:29.168Z,95931.25
2023-03-26T00:16:56.967Z,95908.25
2023-03-26T00:19:25.342Z,95922.75
2023-03-26T00:21:53.322Z,95903.88
2023-03-26T00:24:21.513Z,95912.78
2023-03-26T00:26:53.349Z,95921.13
2023-03-26T00:29:24.640Z,95925.38
2023-03-26T00:31:52.434Z,95922.63
2023-03-26T00:34:20.813Z,95886.69
2023-03-26T00:36:54.248Z,95922.75
2023-03-26T00:39:24.129Z,95916.88
2023-03-26T00:41:54.683Z,95912.63
2023-03-26T00:44:24.252Z,95924.41
2023-03-26T00:46:52.662Z,95924.41
2023-03-26T00:49:20.539Z,95917.69
2023-03-26T00:51:48.523Z,95920.00
2023-03-26T00:54:16.556Z,95912.34
2023-03-26T00:56:44.384Z,95931.25
2023-03-26T00:59:12.284Z,95958.19
2023-03-26T01:01:41.729Z,95949.19
2023-03-26T01:04:28.115Z,95937.56
2023-03-26T01:06:56.648Z,95932.06
2023-03-26T01:09:33.016Z,95946.56
2023-03-26T01:12:02.029Z,95941.38
2023-03-26T01:14:30.528Z,95936.97
2023-03-26T01:17:01.460Z,95931.91
2023-03-26T01:19:37.987Z,95908.25
2023-03-26T01:22:06.222Z,95938.09
2023-03-26T01:24:36.097Z,95924.41
2023-03-26T01:27:19.726Z,95927.69
2023-03-26T01:29:54.200Z,95918.53
2023-03-26T01:32:44.125Z,95908.25
2023-03-26T01:35:20.769Z,95911.00
2023-03-26T01:38:02.610Z,95926.03
2023-03-26T01:40:42.851Z,95897.59
2023-03-26T01:43:19.006Z,95901.69
2023-03-26T01:45:48.877Z,95883.38
2023-03-26T01:48:17.133Z,95885.94
2023-03-26T01:50:46.064Z,95875.41
2023-03-26T01:53:15.419Z,95885.56
2023-03-26T01:55:56.355Z,95912.63
2023-03-26T01:58:34.263Z,95893.75
2023-03-26T02:01:14.043Z,95908.25
2023-03-26T02:03:47.925Z,95902.22
2023-03-26T02:06:20.232Z,95897.31
2023-03-26T02:08:54.463Z,95898.94
2023-03-26T02:11:33.506Z,95931.25
2023-03-26T02:14:05.066Z,95920.16
2023-03-26T02:16:32.949Z,95899.78
2023-03-26T02:19:00.854Z,95904.84
2023-03-26T02:21:29.018Z,95895.69
2023-03-26T02:24:02.857Z,95912.63
2023-03-26T02:26:34.849Z,95929.31
2023-03-26T02:29:12.888Z,95950.66
2023-03-26T02:31:46.740Z,95936.44
2023-03-26T02:34:14.888Z,95915.91
2023-03-26T02:36:43.850Z,95892.94
2023-03-26T02:39:14.356Z,95877.34
2023-03-26T02:41:43.578Z,95909.06
2023-03-26T02:44:11.381Z,95930.28
2023-03-26T02:46:39.195Z,95937.78
2023-03-26T02:49:08.250Z,95918.66
2023-03-26T02:51:35.985Z,95915.91
2023-03-26T02:54:04.648Z,95932.22
2023-03-26T02:56:32.594Z,95926.03
2023-03-26T02:59:01.807Z,95936.16
2023-03-26T03:01:34.938Z,95941.38
2023-03-26T03:04:04.132Z,95944.66
2023-03-26T03:06:32.487Z,95929.59
2023-03-26T03:09:02.690Z,95937.78
2023-03-26T03:11:30.584Z,95942.19
2023-03-26T03:13:58.415Z,95922.63
2023-03-26T03:16:27.830Z,95928.34
2023-03-26T03:18:58.178Z,95958.34
2023-03-26T03:21:28.271Z,95943.97
2023-03-26T03:24:00.232Z,95918.13
2023-03-26T03:26:29.962Z,95938.38
2023-03-26T03:29:00.002Z,95891.81
2023-03-26T03:31:29.499Z,95983.78
2023-03-26T03:33:57.620Z,95969.28
2023-03-26T03:36:27.841Z,95993.00
2023-03-26T03:38:55.929Z,95998.06
2023-03-26T03:41:23.715Z,96011.47
2023-03-26T03:43:51.952Z,95999.84
2023-03-26T03:46:20.402Z,95992.03
2023-03-26T03:48:49.976Z,95995.59
2023-03-26T03:51:18.314Z,95982.84
2023-03-26T03:53:47.381Z,95984.47
2023-03-26T03:56:18.918Z,95981.88
2023-03-26T03:58:47.495Z,95994.63
2023-03-26T04:01:16.838Z,95980.22
2023-03-26T04:03:46.532Z,95994.63
2023-03-26T04:06:18.836Z,95991.31
2023-03-26T04:08:47.063Z,95999.69
2023-03-26T04:11:15.505Z,96021.06
2023-03-26T04:13:43.575Z,96006.81
2023-03-26T04:16:12.173Z,95982.44
2023-03-26T04:18:40.656Z,96008.19
2023-03-26T04:21:08.715Z,96017.47
2023-03-26T04:23:38.074Z,96025.28
2023-03-26T04:26:10.502Z,96020.75
2023-03-26T04:28:46.540Z,95990.13
2023-03-26T04:31:17.433Z,95990.38
2023-03-26T04:33:47.482Z,96009.53
2023-03-26T04:36:16.656Z,96032.81
2023-03-26T04:38:49.224Z,96031.19
2023-03-26T04:41:17.137Z,96017.63
2023-03-26T04:43:50.518Z,96008.31
2023-03-26T04:46:21.732Z,96011.59
2023-03-26T04:48:49.754Z,96016.66
2023-03-26T04:51:18.974Z,96022.69
2023-03-26T04:53:53.340Z,96022.03
2023-03-26T04:56:34.621Z,96041.31
2023-03-26T04:59:02.976Z,96046.22
2023-03-26T05:01:30.806Z,96058.28
2023-03-26T05:03:59.272Z,96060.75
2023-03-26T05:06:28.571Z,96090.63
2023-03-26T05:08:57.669Z,96083.75
2023-03-26T05:11:25.578Z,96107.34
2023-03-26T05:13:53.378Z,96088.69
2023-03-26T05:16:21.894Z,96106.50
2023-03-26T05:18:49.649Z,96105.19
2023-03-26T05:21:17.525Z,96159.78
2023-03-26T05:23:45.810Z,96181.84
2023-03-26T05:26:15.061Z,96208.19
2023-03-26T05:28:43.103Z,96184.47
2023-03-26T05:31:11.433Z,96210.81
2023-03-26T05:33:39.278Z,96232.88
2023-03-26T05:36:10.553Z,96234.38
2023-03-26T05:38:38.317Z,96226.97
2023-03-26T05:41:08.754Z,96221.78
2023-03-26T05:43:37.990Z,96264.13
2023-03-26T05:46:06.245Z,96267.84
2023-03-26T05:48:34.214Z,96249.22
2023-03-26T05:51:02.139Z,96285.38
2023-03-26T05:53:29.935Z,96303.34
2023-03-26T05:55:58.718Z,96327.09
2023-03-26T05:58:27.344Z,96360.16
2023-03-26T06:01:00.106Z,96366.06
2023-03-26T06:03:28.666Z,96381.41
2023-03-26T06:05:56.927Z,96408.88
2023-03-26T06:08:25.909Z,96413.66
2023-03-26T06:10:59.865Z,96463.94
2023-03-26T06:13:27.853Z,96469.69
2023-03-26T06:15:56.052Z,96479.16
2023-03-26T06:18:25.573Z,96501.13
2023-03-26T06:20:53.940Z,96476.56
2023-03-26T06:23:22.869Z,96493.03
2023-03-26T06:25:50.924Z,96501.16
2023-03-26T06:28:19.322Z,96528.44
2023-03-26T06:30:47.313Z,96576.28
2023-03-26T06:33:15.491Z,96535.31
2023-03-26T06:35:46.811Z,96530.09
2023-03-26T06:38:14.828Z,96529.41
2023-03-26T06:40:42.592Z,96571.88
2023-03-26T06:43:11.097Z,96560.75
2023-03-26T06:45:39.292Z,96559.94
2023-03-26T06:48:08.318Z,96559.09
2023-03-26T06:50:36.657Z,96485.88
2023-03-26T06:53:06.101Z,96482.59
2023-03-26T06:55:33.825Z,96528.59
2023-03-26T06:58:01.650Z,96547.97
2023-03-26T07:00:29.474Z,96542.88
2023-03-26T07:02:57.661Z,96557.47
2023-03-26T07:05:25.620Z,96620.22
2023-03-26T07:07:53.435Z,96665.34
2023-03-26T07:10:22.540Z,96678.53
2023-03-26T07:12:50.486Z,96647.44
2023-03-26T07:15:18.316Z,96684.03
2023-03-26T07:17:46.193Z,96712.06
2023-03-26T07:20:14.408Z,96729.25
2023-03-26T07:22:42.796Z,96708.75
2023-03-26T07:25:12.616Z,96684.31
2023-03-26T07:27:53.542Z,96730.22
2023-03-26T07:30:27.799Z,96759.91
2023-03-26T07:32:59.510Z,96773.41
2023-03-26T07:35:31.491Z,96804.22
2023-03-26T07:38:19.767Z,96839.84
2023-03-26T07:41:02.355Z,96844.94
2023-03-26T07:43:51.436Z,96894.22
2023-03-26T07:46:25.979Z,96911.28
2023-03-26T07:48:55.079Z,96927.69
2023-03-26T07:51:23.506Z,97004.25
2023-03-26T07:53:51.830Z,97066.66
2023-03-26T07:56:22.308Z,97127.84
2023-03-26T07:59:00.897Z,97139.16
2023-03-26T08:01:46.348Z,97241.34
2023-03-26T08:04:28.060Z,97375.59
2023-03-26T08:07:01.260Z,97412.88
2023-03-26T08:09:36.173Z,97494.38
2023-03-26T08:12:11.023Z,97538.84
2023-03-26T08:14:52.166Z,97656.19
2023-03-26T08:17:30.993Z,97660.88
2023-03-26T08:20:09.353Z,97557.78
2023-03-26T08:22:42.816Z,97676.81
2023-03-26T08:25:21.148Z,97612.66
2023-03-26T08:27:59.778Z,97522.81
2023-03-26T08:30:29.521Z,97556.25
2023-03-26T08:32:59.273Z,97491.06
2023-03-26T08:35:28.789Z,97439.78
2023-03-26T08:37:56.687Z,97442.41
2023-03-26T08:40:53.534Z,97393.69
2023-03-26T08:43:53.331Z,97380.84
2023-03-26T08:46:43.666Z,97333.91
2023-03-26T08:49:34.475Z,97283.41
2023-03-26T08:52:36.088Z,97230.53
2023-03-26T08:55:31.364Z,97234.03
2023-03-26T08:58:31.559Z,97177.75
2023-03-26T09:01:25.022Z,97109.34
2023-03-26T09:04:11.748Z,97119.59
2023-03-26T09:07:01.050Z,97136.66
2023-03-26T09:10:05.184Z,97150.72
2023-03-26T09:12:59.042Z,97253.75
2023-03-26T09:15:47.676Z,97252.78
2023-03-26T09:18:53.613Z,97303.94
2023-03-26T09:21:58.195Z,97276.50
2023-03-26T09:24:55.489Z,97247.53
2023-03-26T09:27:37.568Z,97191.25
2023-03-26T09:30:39.058Z,97040.81
2023-03-26T09:33:36.580Z,97097.50
2023-03-26T09:36:25.629Z,97160.66
2023-03-26T09:39:05.305Z,97170.72
2023-03-26T09:41:40.975Z,97199.66
2023-03-26T09:44:36.322Z,97257.88
2023-03-26T09:47:29.814Z,97281.75
2023-03-26T09:50:17.202Z,97316.91
2023-03-26T09:52:58.456Z,97300.50
2023-03-26T09:55:51.026Z,97299.53
2023-03-26T09:58:42.198Z,97255.25
2023-03-26T10:01:15.833Z,97272.09
2023-03-26T10:03:58.656Z,97255.25
2023-03-26T10:06:44.604Z,97268.91
2023-03-26T10:09:23.678Z,97241.63
2023-03-26T10:12:11.944Z,97279.00
2023-03-26T10:14:47.342Z,97275.69
2023-03-26T10:17:33.701Z,97244.94
2023-03-26T10:20:20.674Z,97239.13
2023-03-26T10:22:57.989Z,97234.72
2023-03-26T10:25:46.427Z,97224.63
2023-03-26T10:28:40.964Z,97237.34
2023-03-26T10:31:34.246Z,97272.22
2023-03-26T10:34:28.070Z,97276.50
2023-03-26T10:37:04.426Z,97344.97
2023-03-26T10:39:49.626Z,97344.84
2023-03-26T10:42:40.796Z,97397.13
2023-03-26T10:45:25.924Z,97397.69
2023-03-26T10:48:11.343Z,97391.06
2023-03-26T10:50:55.092Z,97416.88
2023-03-26T10:53:35.459Z,97462.88
2023-03-26T10:56:13.928Z,97491.06
2023-03-26T10:58:48.515Z,97453.50
2023-03-26T11:01:33.188Z,97426.13
2023-03-26T11:04:12.826Z,97515.06
2023-03-26T11:06:48.225Z,97532.91
2023-03-26T11:09:26.214Z,97548.25
2023-03-26T11:12:03.079Z,97528.63
2023-03-26T11:14:59.175Z,97563.75
2023-03-26T11:17:41.643Z,97616.66
2023-03-26T11:20:14.447Z,97792.22
2023-03-26T11:22:56.722Z,97872.31
2023-03-26T11:25:39.999Z,97776.66
2023-03-26T11:28:26.509Z,97730.88
2023-03-26T11:31:00.568Z,97669.19
2023-03-26T11:33:36.674Z,97548.50
2023-03-26T11:36:08.827Z,97560.16
2023-03-26T11:38:40.245Z,97572.31
2023-03-26T11:41:15.859Z,97751.09
2023-03-26T11:43:53.810Z,97779.72
2023-03-26T11:46:24.526Z,97945.88
2023-03-26T11:48:57.461Z,98016.00
2023-03-26T11:51:30.772Z,98084.00
2023-03-26T11:53:58.729Z,98174.84
2023-03-26T11:56:31.907Z,98130.22
2023-03-26T11:59:05.841Z,98036.50
2023-03-26T12:01:50.956Z,98062.28
2023-03-26T12:04:26.548Z,98185.97
2023-03-26T12:06:59.677Z,98436.09
2023-03-26T12:09:27.690Z,98892.47
2023-03-26T12:12:01.106Z,98927.84
2023-03-26T12:14:31.749Z,99299.03
2023-03-26T12:17:01.880Z,99525.84
2023-03-26T12:19:38.183Z,99273.28
2023-03-26T12:22:06.650Z,99207.69
2023-03-26T12:24:37.167Z,98983.19
2023-03-26T12:27:22.844Z,98782.31
2023-03-26T12:30:00.061Z,98699.63
2023-03-26T12:32:43.399Z,98509.44
2023-03-26T12:35:19.691Z,98412.19
2023-03-26T12:37:48.550Z,98307.84
2023-03-26T12:40:34.373Z,98322.63
2023-03-26T12:44:52.874Z,98401.78
2023-03-26T12:47:56.642Z,98547.81
2023-03-26T12:48:46.690Z,98764.81
2023-03-26T12:51:27.306Z,98839.97
2023-03-26T12:54:09.803Z,98849.56
2023-03-26T12:56:44.029Z,98679.63
2023-03-26T12:59:29.475Z,98591.97
2023-03-26T13:02:03.639Z,98398.31
2023-03-26T13:05:04.997Z,98289.19
2023-03-26T13:07:48.258Z,98313.31
2023-03-26T13:10:33.769Z,98436.09
2023-03-26T13:13:12.372Z,98707.19
2023-03-26T13:15:45.800Z,98750.31
2023-03-26T13:18:24.005Z,98696.88
2023-03-26T13:21:00.048Z,98586.50
2023-03-26T13:23:40.000Z,98561.69
2023-03-26T13:26:23.577Z,98605.41
2023-03-26T13:28:59.590Z,98800.28
2023-03-26T13:31:32.896Z,99036.56
2023-03-26T13:34:08.446Z,99431.50
2023-03-26T13:36:47.674Z,99814.19
2023-03-26T13:39:26.191Z,100061.75
2023-03-26T13:42:10.080Z,100071.38
2023-03-26T13:44:49.546Z,100166.06
2023-03-26T13:47:20.901Z,100275.53
2023-03-26T13:49:52.885Z,100512.13
2023-03-26T13:52:26.147Z,100915.06
2023-03-26T13:55:02.068Z,101173.56
2023-03-26T13:57:36.170Z,101269.59
2023-03-26T14:00:12.617Z,101349.41
2023-03-26T14:02:42.327Z,101254.63
2023-03-26T14:05:16.688Z,100875.78
2023-03-26T14:07:49.849Z,100267.06
2023-03-26T14:10:23.355Z,99705.41
2023-03-26T14:12:58.000Z,99416.00
2023-03-26T14:15:30.759Z,98950.53
2023-03-26T14:18:07.450Z,98685.97
2023-03-26T14:21:01.062Z,98483.59
2023-03-26T14:23:45.296Z,98412.19
2023-03-26T14:26:27.546Z,98180.00
2023-03-26T14:29:27.151Z,98012.91
2023-03-26T14:32:04.844Z,97909.97
2023-03-26T14:34:46.793Z,97783.88
2023-03-26T14:37:47.908Z,97648.59
2023-03-26T14:40:28.909Z,97658.94
2023-03-26T14:43:16.555Z,97635.59
2023-03-26T14:46:08.656Z,97664.75
2023-03-26T14:49:12.855Z,97640.03
2023-03-26T14:51:55.318Z,97633.94
2023-03-26T14:54:27.214Z,97601.59
2023-03-26T14:57:25.541Z,97565.41
2023-03-26T15:00:28.787Z,97515.91
2023-03-26T15:03:29.650Z,97491.06
2023-03-26T15:06:25.736Z,97431.78
2023-03-26T15:09:26.000Z,97415.06
2023-03-26T15:12:12.372Z,97419.09
2023-03-26T15:15:11.117Z,97335.19
2023-03-26T15:18:28.586Z,97272.09
2023-03-26T15:21:23.647Z,97209.03
2023-03-26T15:24:18.821Z,97205.59
2023-03-26T15:27:30.457Z,97170.59
2023-03-26T15:30:34.194Z,97138.06
2023-03-26T15:33:38.873Z,97153.22
2023-03-26T15:36:53.268Z,97154.19
2023-03-26T15:39:59.311Z,97136.41
2023-03-26T15:42:38.068Z,97058.78
2023-03-26T15:45:27.171Z,97035.78
2023-03-26T15:48:08.732Z,96976.28
2023-03-26T15:50:55.763Z,97000.81
2023-03-26T15:53:35.622Z,96952.88
2023-03-26T15:56:19.013Z,96891.47
2023-03-26T15:58:55.285Z,96947.34
2023-03-26T16:01:44.731Z,96868.88
2023-03-26T16:04:24.972Z,96940.19
2023-03-26T16:07:03.800Z,96899.19
2023-03-26T16:09:56.072Z,96900.84
2023-03-26T16:12:33.669Z,96870.16
2023-03-26T16:15:26.229Z,96871.94
2023-03-26T16:18:29.851Z,96850.44
2023-03-26T16:21:05.674Z,96806.28
2023-03-26T16:23:53.774Z,96727.19
2023-03-26T16:26:26.488Z,96718.66
2023-03-26T16:29:18.189Z,96681.28
2023-03-26T16:32:05.716Z,96650.47
2023-03-26T16:34:42.216Z,96619.94
2023-03-26T16:37:36.878Z,96597.00
2023-03-26T16:40:33.563Z,96545.22
2023-03-26T16:43:14.560Z,96516.34
2023-03-26T16:45:51.604Z,96465.56
2023-03-26T16:48:27.901Z,96463.34
2023-03-26T16:51:05.649Z,96465.81
2023-03-26T16:53:42.705Z,96464.19
2023-03-26T16:56:17.896Z,96452.53
2023-03-26T16:58:55.928Z,96433.72
2023-03-26T17:01:36.574Z,96402.13
2023-03-26T17:04:08.279Z,96424.38
2023-03-26T17:07:04.120Z,96387.03
2023-03-26T17:09:46.635Z,96394.44
2023-03-26T17:12:24.829Z,96386.22
2023-03-26T17:15:05.978Z,96342.84
2023-03-26T17:17:47.512Z,96340.41
2023-03-26T17:20:26.632Z,96336.00
2023-03-26T17:23:03.642Z,96301.00
2023-03-26T17:25:37.177Z,96313.78
2023-03-26T17:28:33.884Z,96310.50
2023-03-26T17:31:05.374Z,96311.31
2023-03-26T17:33:36.775Z,96265.63
2023-03-26T17:36:30.475Z,96262.06
2023-03-26T17:39:18.735Z,96257.66
2023-03-26T17:42:18.930Z,96248.34
2023-03-26T17:44:53.489Z,96249.97
2023-03-26T17:47:28.141Z,96230.50
2023-03-26T17:50:01.146Z,96221.19
2023-03-26T17:52:49.182Z,96239.16
2023-03-26T17:55:21.224Z,96223.50
2023-03-26T17:57:52.494Z,96220.53
2023-03-26T18:00:24.394Z,96206.81
2023-03-26T18:02:57.322Z,96215.31
2023-03-26T18:05:29.380Z,96190.63
2023-03-26T18:08:42.373Z,96181.28
2023-03-26T18:11:44.344Z,96172.78
2023-03-26T18:14:30.989Z,96171.16
2023-03-26T18:17:01.634Z,96146.63
2023-03-26T18:19:31.846Z,96138.56
2023-03-26T18:22:04.578Z,96165.09
2023-03-26T18:24:37.091Z,96118.03
2023-03-26T18:27:12.176Z,96142.38
2023-03-26T18:29:44.903Z,96129.25
2023-03-26T18:32:26.075Z,96141.41
2023-03-26T18:34:58.283Z,96140.72
2023-03-26T18:37:28.879Z,96121.81
2023-03-26T18:40:02.374Z,96132.78
2023-03-26T18:42:32.550Z,96105.78
2023-03-26T18:45:05.335Z,96088.13
2023-03-26T18:47:36.547Z,96124.72
2023-03-26T18:50:04.948Z,96112.66
2023-03-26T18:52:33.489Z,96094.44
2023-03-26T18:55:04.427Z,96111.69
2023-03-26T18:57:32.370Z,96097.31
2023-03-26T19:00:18.550Z,96076.31
2023-03-26T19:02:50.789Z,96068.50
2023-03-26T19:05:20.321Z,96029.97
2023-03-26T19:07:48.950Z,96084.84
2023-03-26T19:10:21.480Z,96072.78
2023-03-26T19:12:56.997Z,96066.88
2023-03-26T19:15:26.710Z,96055.78
2023-03-26T19:18:03.737Z,96071.00
2023-03-26T19:20:39.380Z,96052.88
2023-03-26T19:23:09.676Z,96044.69
2023-03-26T19:25:42.897Z,96039.63
2023-03-26T19:28:18.288Z,96023.47
2023-03-26T19:30:46.286Z,96044.69
2023-03-26T19:33:18.419Z,96015.94
2023-03-26T19:35:51.999Z,96006.47
2023-03-26T19:38:24.726Z,96021.00
2023-03-26T19:40:56.992Z,96033.59
2023-03-26T19:43:26.263Z,96032.63
2023-03-26T19:46:00.791Z,96017.72
2023-03-26T19:48:46.716Z,95990.31
2023-03-26T19:51:32.513Z,95954.38
2023-03-26T19:54:04.128Z,95991.72
2023-03-26T19:56:33.949Z,95999.78
2023-03-26T19:59:02.368Z,95970.91
2023-03-26T20:01:31.895Z,95973.66
2023-03-26T20:04:06.370Z,95975.44
2023-03-26T20:06:43.249Z,96004.84
2023-03-26T20:09:12.654Z,96003.06
2023-03-26T20:11:41.282Z,96003.19
2023-03-26T20:14:14.235Z,95987.88
2023-03-26T20:16:44.446Z,95974.16
2023-03-26T20:19:15.181Z,95969.25
2023-03-26T20:21:44.360Z,95983.78
2023-03-26T20:24:15.025Z,95957.38
2023-03-26T20:26:43.056Z,95951.56
2023-03-26T20:29:11.678Z,95954.75
2023-03-26T20:31:41.555Z,95972.53
2023-03-26T20:34:17.956Z,95969.25
2023-03-26T20:36:46.876Z,95938.56
2023-03-26T20:39:15.088Z,95954.03
2023-03-26T20:41:46.240Z,95936.91
2023-03-26T20:44:16.803Z,95957.75
2023-03-26T20:46:45.746Z,95962.41
2023-03-26T20:49:15.046Z,95949.28
2023-03-26T20:51:45.078Z,95940.19
2023-03-26T20:54:17.754Z,95924.34
2023-03-26T20:56:47.699Z,95900.28
2023-03-26T20:59:22.271Z,95909.00
2023-03-26T21:01:51.727Z,95906.25
2023-03-26T21:04:20.528Z,95916.69
2023-03-26T21:06:50.139Z,95918.16
2023-03-26T21:09:23.682Z,95931.03
2023-03-26T21:12:01.715Z,95924.03
2023-03-26T21:14:33.593Z,95924.03
2023-03-26T21:17:02.376Z,95919.94
2023-03-26T21:19:30.733Z,95890.13
2023-03-26T21:22:10.827Z,95898.88
2023-03-26T21:24:54.600Z,95908.03
2023-03-26T21:27:29.136Z,95912.28
2023-03-26T21:29:58.333Z,95902.97
2023-03-26T21:32:27.063Z,95907.22
2023-03-26T21:34:59.104Z,95897.78
2023-03-26T21:37:29.375Z,95899.72
2023-03-26T21:39:57.799Z,95889.28
2023-03-26T21:42:29.260Z,95893.00
2023-03-26T21:44:57.702Z,95908.03
2023-03-26T21:47:26.311Z,95905.59
2023-03-26T21:49:54.835Z,95904.63
2023-03-26T21:52:23.966Z,95887.13
2023-03-26T21:54:54.099Z,95884.38
2023-03-26T21:57:43.441Z,95874.94
2023-03-26T22:00:16.298Z,95863.03
2023-03-26T22:02:55.055Z,95867.56
2023-03-26T22:05:31.138Z,95824.97
2023-03-26T22:08:02.959Z,95816.50
2023-03-26T22:10:32.955Z,95841.97
2023-03-26T22:13:01.023Z,95830.03
2023-03-26T22:15:30.716Z,95810.47
2023-03-26T22:18:02.218Z,95809.97
2023-03-26T22:20:30.423Z,95777.38
2023-03-26T22:22:58.955Z,95764.97
2023-03-26T22:25:27.721Z,95785.50
2023-03-26T22:27:57.493Z,95790.41
2023-03-26T22:30:25.699Z,95759.78
2023-03-26T22:32:53.846Z,95726.84
2023-03-26T22:35:21.887Z,95732.03
2023-03-26T22:37:50.440Z,95723.53
2023-03-26T22:40:18.671Z,95696.47
2023-03-26T22:42:46.655Z,95681.47
2023-03-26T22:45:17.153Z,95673.00
2023-03-26T22:47:45.457Z,95634.47
2023-03-26T22:50:13.757Z,95664.53
2023-03-26T22:52:41.945Z,95650.84
2023-03-26T22:55:11.250Z,95674.63
2023-03-26T22:57:39.584Z,95660.13
2023-03-26T23:00:16.379Z,95652.50
2023-03-26T23:02:47.606Z,95663.19
2023-03-26T23:05:17.391Z,95654.41
2023-03-26T23:07:46.026Z,95654.41
2023-03-26T23:10:15.105Z,95656.06
2023-03-26T23:12:43.038Z,95639.13
2023-03-26T23:15:11.890Z,95619.84
2023-03-26T23:17:40.294Z,95615.34
2023-03-26T23:20:15.362Z,95571.56
2023-03-26T23:22:44.350Z,95568.97
2023-03-26T23:25:13.079Z,95602.59
2023-03-26T23:27:41.466Z,95602.59
2023-03-26T23:30:11.879Z,95615.47
2023-03-26T23:32:40.724Z,95605.22
2023-03-26T23:35:11.293Z,95596.75
2023-03-26T23:37:44.294Z,95603.44
2023-03-26T23:40:13.672Z,95611.06
2023-03-26T23:42:42.413Z,95625.59
2023-03-26T23:45:12.326Z,95595.09
2023-03-26T23:47:42.691Z,95591.53
2023-03-26T23:50:13.061Z,95592.97
2023-03-26T23:52:41.311Z,95587.31
2023-03-26T23:55:10.040Z,95583.06
2023-03-26T23:57:38.218Z,95573.28
